createdAt,value
2016-08-13T00:00:15.846Z,0
2016-08-13T00:01:15.813Z,0
2016-08-13T00:02:15.782Z,0
2016-08-13T00:03:15.762Z,0
2016-08-13T00:04:13.627Z,0
2016-08-13T00:05:14.989Z,0
2016-08-13T00:06:14.955Z,0
2016-08-13T00:07:14.233Z,0
2016-08-13T00:08:14.892Z,0
2016-08-13T00:09:14.853Z,0
2016-08-13T00:10:15.525Z,0
2016-08-13T00:11:14.088Z,0
2016-08-13T00:12:15.470Z,0
2016-08-13T00:13:14.741Z,0
2016-08-13T00:14:15.390Z,0
2016-08-13T00:15:14.658Z,0
2016-08-13T00:16:15.330Z,0
2016-08-13T00:17:15.310Z,0
2016-08-13T00:18:15.270Z,0
2016-08-13T00:19:15.240Z,0
2016-08-13T00:20:15.200Z,0
2016-08-13T00:21:15.184Z,0
2016-08-13T00:22:15.131Z,0
2016-08-13T00:23:14.401Z,0
2016-08-13T00:24:13.672Z,0
2016-08-13T00:25:15.038Z,0
2016-08-13T00:26:15.000Z,0
2016-08-13T00:27:14.269Z,0
2016-08-13T00:28:13.539Z,0
2016-08-13T00:29:14.201Z,0
2016-08-13T00:30:13.481Z,0
2016-08-13T00:31:14.144Z,0
2016-08-13T00:32:14.110Z,0
2016-08-13T00:33:14.090Z,0
2016-08-13T00:34:13.353Z,0
2016-08-13T00:35:14.699Z,0
2016-08-13T00:36:13.970Z,0
2016-08-13T00:37:12.552Z,0
2016-08-13T00:38:14.617Z,0
2016-08-13T00:39:13.882Z,0
2016-08-13T00:40:13.844Z,0
2016-08-13T00:41:13.818Z,0
2016-08-13T00:42:14.481Z,0
2016-08-13T00:43:13.751Z,0
2016-08-13T00:44:13.717Z,0
2016-08-13T00:45:13.691Z,0
2016-08-13T00:46:13.659Z,0
2016-08-13T00:47:12.921Z,0
2016-08-13T00:48:14.275Z,0
2016-08-13T00:49:12.855Z,0
2016-08-13T00:50:14.220Z,0
2016-08-13T00:51:14.177Z,0
2016-08-13T00:52:14.146Z,0
2016-08-13T00:53:14.119Z,0
2016-08-13T00:54:12.686Z,0
2016-08-13T00:55:14.044Z,0
2016-08-13T00:56:13.325Z,0
2016-08-13T00:57:11.896Z,0
2016-08-13T00:58:13.961Z,0
2016-08-13T00:59:13.225Z,0
2016-08-13T01:00:13.183Z,0
2016-08-13T01:01:13.158Z,0
2016-08-13T01:02:13.120Z,0
2016-08-13T01:03:13.783Z,0
2016-08-13T01:04:13.750Z,0
2016-08-13T01:05:13.731Z,0
2016-08-13T01:06:13.695Z,0
2016-08-13T01:07:12.950Z,0
2016-08-13T01:08:13.608Z,0
2016-08-13T01:09:13.601Z,0
2016-08-13T01:10:12.854Z,0
2016-08-13T01:11:12.122Z,0
2016-08-13T01:12:12.093Z,0
2016-08-13T01:13:13.445Z,0
2016-08-13T01:14:12.729Z,0
2016-08-13T01:15:12.700Z,0
2016-08-13T01:16:13.364Z,0
2016-08-13T01:17:13.333Z,0
2016-08-13T01:18:13.288Z,0
2016-08-13T01:19:13.258Z,0
2016-08-13T01:20:13.217Z,0
2016-08-13T01:21:12.497Z,0
2016-08-13T01:22:13.153Z,0
2016-08-13T01:23:11.719Z,0
2016-08-13T01:24:12.382Z,0
2016-08-13T01:25:13.045Z,0
2016-08-13T01:26:13.043Z,0
2016-08-13T01:27:12.282Z,0
2016-08-13T01:28:12.248Z,0
2016-08-13T01:29:12.909Z,0
2016-08-13T01:30:12.201Z,0
2016-08-13T01:31:12.170Z,0
2016-08-13T01:32:12.818Z,0
2016-08-13T01:33:11.385Z,0
2016-08-13T01:34:12.743Z,0
2016-08-13T01:35:12.015Z,0
2016-08-13T01:36:11.279Z,0
2016-08-13T01:37:11.269Z,0
2016-08-13T01:38:11.215Z,0
2016-08-13T01:39:12.575Z,0
2016-08-13T01:40:11.843Z,0
2016-08-13T01:41:11.806Z,0
2016-08-13T01:42:11.786Z,0
2016-08-13T01:43:12.454Z,0
2016-08-13T01:44:12.409Z,0
2016-08-13T01:45:12.373Z,0
2016-08-13T01:46:12.337Z,0
2016-08-13T01:47:12.326Z,0
2016-08-13T01:48:12.267Z,0
2016-08-13T01:49:10.851Z,0
2016-08-13T01:50:12.204Z,0
2016-08-13T01:51:11.486Z,0
2016-08-13T01:52:10.749Z,0
2016-08-13T01:53:10.704Z,0
2016-08-13T01:54:11.376Z,0
2016-08-13T01:55:10.640Z,0
2016-08-13T01:56:11.998Z,0
2016-08-13T01:57:11.965Z,0
2016-08-13T01:58:11.248Z,0
2016-08-13T01:59:11.883Z,0
2016-08-13T02:00:11.159Z,0
2016-08-13T02:01:11.837Z,0
2016-08-13T02:02:11.795Z,0
2016-08-13T02:03:11.077Z,0
2016-08-13T02:04:11.042Z,0
2016-08-13T02:05:10.304Z,0
2016-08-13T02:06:11.661Z,0
2016-08-13T02:07:11.620Z,0
2016-08-13T02:08:11.597Z,0
2016-08-13T02:09:11.563Z,0
2016-08-13T02:10:11.526Z,0
2016-08-13T02:11:10.091Z,0
2016-08-13T02:12:10.760Z,0
2016-08-13T02:13:11.421Z,0
2016-08-13T02:14:10.685Z,0
2016-08-13T02:15:11.348Z,0
2016-08-13T02:16:11.317Z,0
2016-08-13T02:17:10.589Z,0
2016-08-13T02:18:10.555Z,0
2016-08-13T02:19:11.211Z,0
2016-08-13T02:20:10.487Z,0
2016-08-13T02:21:11.157Z,0
2016-08-13T02:22:11.118Z,0
2016-08-13T02:23:11.074Z,0
2016-08-13T02:24:11.051Z,0
2016-08-13T02:25:09.616Z,0
2016-08-13T02:26:10.278Z,0
2016-08-13T02:27:10.239Z,0
2016-08-13T02:28:10.227Z,0
2016-08-13T02:29:09.472Z,0
2016-08-13T02:30:10.849Z,0
2016-08-13T02:31:10.099Z,0
2016-08-13T02:32:10.765Z,0
2016-08-13T02:33:10.734Z,0
2016-08-13T02:34:10.001Z,0
2016-08-13T02:35:10.657Z,0
2016-08-13T02:36:09.940Z,0
2016-08-13T02:37:09.204Z,0
2016-08-13T02:38:09.868Z,0
2016-08-13T02:39:09.833Z,0
2016-08-13T02:40:09.792Z,0
2016-08-13T02:41:10.469Z,0
2016-08-13T02:42:09.733Z,0
2016-08-13T02:43:10.396Z,0
2016-08-13T02:44:09.654Z,0
2016-08-13T02:45:10.330Z,0
2016-08-13T02:46:09.599Z,0
2016-08-13T02:47:10.244Z,0
2016-08-13T02:48:10.213Z,0
2016-08-13T02:49:09.479Z,0
2016-08-13T02:50:10.146Z,0
2016-08-13T02:51:10.115Z,0
2016-08-13T02:52:10.083Z,0
2016-08-13T02:53:07.975Z,0
2016-08-13T02:54:10.002Z,0
2016-08-13T02:55:09.971Z,0
2016-08-13T02:56:09.262Z,0
2016-08-13T02:57:09.905Z,0
2016-08-13T02:58:09.872Z,0
2016-08-13T02:59:09.145Z,0
2016-08-13T03:00:09.107Z,0
2016-08-13T03:01:09.779Z,0
2016-08-13T03:02:08.335Z,0
2016-08-13T03:03:08.995Z,0
2016-08-13T03:04:09.658Z,0
2016-08-13T03:05:08.940Z,0
2016-08-13T03:06:09.590Z,0
2016-08-13T03:07:08.861Z,0
2016-08-13T03:08:09.534Z,0
2016-08-13T03:09:09.485Z,0
2016-08-13T03:10:09.459Z,0
2016-08-13T03:11:08.716Z,0
2016-08-13T03:12:08.703Z,0
2016-08-13T03:13:08.653Z,0
2016-08-13T03:14:08.624Z,0
2016-08-13T03:15:09.279Z,0
2016-08-13T03:16:08.556Z,0
2016-08-13T03:17:08.511Z,0
2016-08-13T03:18:09.181Z,0
2016-08-13T03:19:09.137Z,0
2016-08-13T03:20:08.409Z,0
2016-08-13T03:21:08.384Z,0
2016-08-13T03:22:08.363Z,0
2016-08-13T03:23:09.000Z,0
2016-08-13T03:24:07.591Z,0
2016-08-13T03:25:07.551Z,0
2016-08-13T03:26:08.203Z,0
2016-08-13T03:27:08.164Z,0
2016-08-13T03:28:08.827Z,0
2016-08-13T03:29:08.095Z,0
2016-08-13T03:30:08.764Z,0
2016-08-13T03:31:08.026Z,0
2016-08-13T03:32:06.602Z,0
2016-08-13T03:33:08.659Z,0
2016-08-13T03:34:08.624Z,0
2016-08-13T03:35:07.888Z,0
2016-08-13T03:36:08.554Z,0
2016-08-13T03:37:08.512Z,0
2016-08-13T03:38:08.496Z,0
2016-08-13T03:39:07.751Z,0
2016-08-13T03:40:07.714Z,0
2016-08-13T03:41:07.686Z,0
2016-08-13T03:42:08.341Z,0
2016-08-13T03:43:06.914Z,0
2016-08-13T03:44:08.273Z,0
2016-08-13T03:45:08.240Z,0
2016-08-13T03:46:08.195Z,0
2016-08-13T03:47:08.175Z,0
2016-08-13T03:48:08.135Z,0
2016-08-13T03:49:07.405Z,0
2016-08-13T03:50:06.672Z,0
2016-08-13T03:51:08.032Z,0
2016-08-13T03:52:05.910Z,0
2016-08-13T03:53:07.968Z,0
2016-08-13T03:54:07.925Z,0
2016-08-13T03:55:07.892Z,0
2016-08-13T03:56:07.855Z,0
2016-08-13T03:57:07.821Z,0
2016-08-13T03:58:07.786Z,0
2016-08-13T03:59:07.747Z,0
2016-08-13T04:00:07.024Z,0
2016-08-13T04:01:06.307Z,0
2016-08-13T04:02:06.955Z,0
2016-08-13T04:03:06.219Z,0
2016-08-13T04:04:06.203Z,0
2016-08-13T04:05:06.880Z,0
2016-08-13T04:06:07.510Z,0
2016-08-13T04:07:07.477Z,0
2016-08-13T04:08:06.060Z,5
2016-08-13T04:09:06.715Z,5
2016-08-13T04:10:07.403Z,5
2016-08-13T04:11:07.344Z,5
2016-08-13T04:12:06.604Z,5
2016-08-13T04:13:06.583Z,5
2016-08-13T04:14:07.233Z,5
2016-08-13T04:15:05.820Z,10
2016-08-13T04:16:07.172Z,10
2016-08-13T04:17:06.425Z,10
2016-08-13T04:18:07.105Z,10
2016-08-13T04:19:07.079Z,10
2016-08-13T04:20:07.028Z,15
2016-08-13T04:21:05.602Z,15
2016-08-13T04:22:06.263Z,15
2016-08-13T04:23:06.228Z,15
2016-08-13T04:24:06.891Z,15
2016-08-13T04:25:06.877Z,20
2016-08-13T04:26:05.433Z,20
2016-08-13T04:27:06.786Z,20
2016-08-13T04:28:04.683Z,20
2016-08-13T04:29:05.326Z,25
2016-08-13T04:30:05.986Z,25
2016-08-13T04:31:06.697Z,25
2016-08-13T04:32:05.925Z,25
2016-08-13T04:33:05.191Z,30
2016-08-13T04:34:05.851Z,30
2016-08-13T04:35:06.506Z,30
2016-08-13T04:36:06.482Z,35
2016-08-13T04:37:06.459Z,35
2016-08-13T04:38:06.404Z,35
2016-08-13T04:39:05.686Z,35
2016-08-13T04:40:05.649Z,40
2016-08-13T04:41:06.311Z,40
2016-08-13T04:42:05.577Z,40
2016-08-13T04:43:06.250Z,45
2016-08-13T04:44:04.810Z,45
2016-08-13T04:45:06.166Z,45
2016-08-13T04:46:05.451Z,50
2016-08-13T04:47:05.412Z,55
2016-08-13T04:48:06.072Z,55
2016-08-13T04:49:06.035Z,55
2016-08-13T04:50:05.993Z,60
2016-08-13T04:51:05.272Z,65
2016-08-13T04:52:05.245Z,65
2016-08-13T04:53:05.896Z,60
2016-08-13T04:54:05.162Z,60
2016-08-13T04:55:05.825Z,65
2016-08-13T04:56:04.400Z,70
2016-08-13T04:57:04.368Z,70
2016-08-13T04:58:05.719Z,70
2016-08-13T04:59:05.006Z,75
2016-08-13T05:00:04.264Z,85
2016-08-13T05:01:04.225Z,95
2016-08-13T05:02:05.581Z,100
2016-08-13T05:03:05.555Z,100
2016-08-13T05:04:05.522Z,110
2016-08-13T05:05:05.488Z,125
2016-08-13T05:06:05.446Z,165
2016-08-13T05:07:04.720Z,275
2016-08-13T05:08:03.980Z,360
2016-08-13T05:09:05.354Z,390
2016-08-13T05:10:05.316Z,405
2016-08-13T05:11:04.580Z,420
2016-08-13T05:12:05.248Z,430
2016-08-13T05:13:03.823Z,435
2016-08-13T05:14:04.491Z,450
2016-08-13T05:15:05.142Z,460
2016-08-13T05:16:04.422Z,470
2016-08-13T05:17:05.076Z,485
2016-08-13T05:18:05.057Z,505
2016-08-13T05:19:03.620Z,510
2016-08-13T05:20:04.284Z,520
2016-08-13T05:21:04.253Z,525
2016-08-13T05:22:04.228Z,545
2016-08-13T05:23:04.185Z,555
2016-08-13T05:24:03.469Z,575
2016-08-13T05:25:04.826Z,590
2016-08-13T05:26:04.810Z,605
2016-08-13T05:27:04.794Z,615
2016-08-13T05:28:04.732Z,635
2016-08-13T05:29:04.715Z,645
2016-08-13T05:30:03.982Z,650
2016-08-13T05:31:04.671Z,660
2016-08-13T05:32:04.618Z,660
2016-08-13T05:33:04.590Z,675
2016-08-13T05:34:03.870Z,680
2016-08-13T05:35:03.834Z,680
2016-08-13T05:36:04.505Z,695
2016-08-13T05:37:03.800Z,705
2016-08-13T05:38:03.065Z,710
2016-08-13T05:39:04.427Z,725
2016-08-13T05:40:03.704Z,745
2016-08-13T05:41:04.370Z,750
2016-08-13T05:42:03.654Z,770
2016-08-13T05:43:04.323Z,780
2016-08-13T05:44:04.294Z,790
2016-08-13T05:45:04.267Z,810
2016-08-13T05:46:03.595Z,820
2016-08-13T05:47:03.513Z,825
2016-08-13T05:48:04.185Z,840
2016-08-13T05:49:03.477Z,845
2016-08-13T05:50:04.132Z,850
2016-08-13T05:51:04.110Z,845
2016-08-13T05:52:04.083Z,855
2016-08-13T05:53:02.663Z,850
2016-08-13T05:54:04.041Z,850
2016-08-13T05:55:03.328Z,860
2016-08-13T05:56:03.293Z,870
2016-08-13T05:57:03.292Z,870
2016-08-13T05:58:01.848Z,885
2016-08-13T05:59:02.517Z,880
2016-08-13T06:00:03.891Z,875
2016-08-13T06:01:03.866Z,880
2016-08-13T06:02:02.451Z,870
2016-08-13T06:03:03.143Z,870
2016-08-13T06:04:03.122Z,865
2016-08-13T06:05:03.776Z,870
2016-08-13T06:06:03.061Z,865
2016-08-13T06:07:03.028Z,870
2016-08-13T06:08:03.009Z,870
2016-08-13T06:09:03.696Z,870
2016-08-13T06:10:03.665Z,880
2016-08-13T06:11:02.940Z,880
2016-08-13T06:12:03.612Z,885
2016-08-13T06:13:02.895Z,890
2016-08-13T06:14:02.183Z,895
2016-08-13T06:15:02.865Z,905
2016-08-13T06:16:02.833Z,925
2016-08-13T06:17:02.804Z,990
2016-08-13T06:18:03.481Z,1070
2016-08-13T06:19:03.460Z,1120
2016-08-13T06:20:03.450Z,1150
2016-08-13T06:21:02.025Z,1155
2016-08-13T06:22:02.012Z,1155
2016-08-13T06:23:03.374Z,1150
2016-08-13T06:24:02.656Z,1155
2016-08-13T06:25:02.637Z,1170
2016-08-13T06:26:03.315Z,1175
2016-08-13T06:27:02.594Z,1150
2016-08-13T06:28:03.266Z,1150
2016-08-13T06:29:03.248Z,1160
2016-08-13T06:30:03.232Z,1180
2016-08-13T06:31:03.425Z,1195
2016-08-13T06:32:03.195Z,1210
2016-08-13T06:33:03.166Z,1215
2016-08-13T06:34:02.467Z,1215
2016-08-13T06:35:03.126Z,1240
2016-08-13T06:36:02.415Z,1245
2016-08-13T06:37:01.695Z,1250
2016-08-13T06:38:03.062Z,1250
2016-08-13T06:39:03.049Z,1265
2016-08-13T06:40:02.323Z,1275
2016-08-13T06:41:02.996Z,1285
2016-08-13T06:42:02.973Z,1300
2016-08-13T06:43:02.957Z,1310
2016-08-13T06:44:02.958Z,1310
2016-08-13T06:45:01.518Z,1320
2016-08-13T06:46:02.197Z,1320
2016-08-13T06:47:02.169Z,1325
2016-08-13T06:48:02.844Z,1320
2016-08-13T06:49:02.828Z,1330
2016-08-13T06:50:01.406Z,1335
2016-08-13T06:51:02.087Z,1350
2016-08-13T06:52:02.066Z,1365
2016-08-13T06:53:02.743Z,1370
2016-08-13T06:54:02.015Z,1375
2016-08-13T06:55:02.693Z,1380
2016-08-13T06:56:02.665Z,1385
2016-08-13T06:57:02.656Z,1410
2016-08-13T06:58:02.647Z,1435
2016-08-13T06:59:01.910Z,1420
2016-08-13T07:00:02.577Z,1430
2016-08-13T07:01:01.863Z,1415
2016-08-13T07:02:02.536Z,1410
2016-08-13T07:03:01.816Z,1410
2016-08-13T07:04:01.098Z,1420
2016-08-13T07:05:02.675Z,1450
2016-08-13T07:06:02.465Z,1460
2016-08-13T07:07:02.435Z,1460
2016-08-13T07:08:01.708Z,1490
2016-08-13T07:09:00.988Z,1495
2016-08-13T07:10:02.361Z,1525
2016-08-13T07:11:00.944Z,1530
2016-08-13T07:12:01.635Z,1550
2016-08-13T07:13:02.305Z,1570
2016-08-13T07:14:01.579Z,1570
2016-08-13T07:15:01.565Z,1585
2016-08-13T07:16:00.837Z,1610
2016-08-13T07:17:02.222Z,1605
2016-08-13T07:18:00.800Z,1625
2016-08-13T07:19:02.192Z,1645
2016-08-13T07:20:01.453Z,1670
2016-08-13T07:21:02.128Z,1700
2016-08-13T07:22:02.108Z,1715
2016-08-13T07:23:02.095Z,1720
2016-08-13T07:24:02.066Z,1735
2016-08-13T07:25:01.349Z,1760
2016-08-13T07:26:02.026Z,1795
2016-08-13T07:27:01.315Z,1815
2016-08-13T07:28:01.316Z,1790
2016-08-13T07:29:01.965Z,1780
2016-08-13T07:30:01.936Z,1795
2016-08-13T07:31:01.222Z,1855
2016-08-13T07:32:01.914Z,1845
2016-08-13T07:33:01.890Z,1830
2016-08-13T07:34:01.864Z,1825
2016-08-13T07:35:01.148Z,1825
2016-08-13T07:36:00.435Z,1790
2016-08-13T07:37:01.805Z,1815
2016-08-13T07:38:01.097Z,1765
2016-08-13T07:39:00.371Z,1580
2016-08-13T07:40:00.362Z,1320
2016-08-13T07:41:00.328Z,1155
2016-08-13T07:42:01.704Z,1135
2016-08-13T07:43:01.004Z,1130
2016-08-13T07:44:00.980Z,1110
2016-08-13T07:45:00.955Z,1110
2016-08-13T07:46:00.944Z,1115
2016-08-13T07:47:00.225Z,1120
2016-08-13T07:48:01.594Z,1130
2016-08-13T07:49:00.884Z,1125
2016-08-13T07:50:00.174Z,1130
2016-08-13T07:51:01.545Z,1135
2016-08-13T07:52:01.523Z,1145
2016-08-13T07:53:00.803Z,1150
2016-08-13T07:54:00.813Z,1170
2016-08-13T07:55:01.464Z,1210
2016-08-13T07:56:00.757Z,1495
2016-08-13T07:57:01.443Z,1880
2016-08-13T07:58:01.421Z,2000
2016-08-13T07:59:01.412Z,2010
2016-08-13T08:00:00.681Z,2045
2016-08-13T08:01:01.359Z,2020
2016-08-13T08:02:00.656Z,2070
2016-08-13T08:03:00.639Z,2085
2016-08-13T08:04:00.615Z,2070
2016-08-13T08:05:00.598Z,2115
2016-08-13T08:05:59.876Z,2105
2016-08-13T08:07:01.257Z,2110
2016-08-13T08:08:01.241Z,2180
2016-08-13T08:09:00.529Z,2175
2016-08-13T08:10:01.231Z,2170
2016-08-13T08:11:01.194Z,2215
2016-08-13T08:12:01.180Z,2180
2016-08-13T08:13:01.167Z,2120
2016-08-13T08:14:00.445Z,2120
2016-08-13T08:15:00.421Z,2200
2016-08-13T08:16:01.106Z,2265
2016-08-13T08:17:00.409Z,2265
2016-08-13T08:18:00.397Z,2260
2016-08-13T08:19:00.356Z,2195
2016-08-13T08:19:59.659Z,2175
2016-08-13T08:21:00.343Z,2210
2016-08-13T08:22:00.329Z,2235
2016-08-13T08:23:00.998Z,2255
2016-08-13T08:23:59.606Z,2260
2016-08-13T08:25:00.972Z,2320
2016-08-13T08:26:00.964Z,2310
2016-08-13T08:27:00.941Z,2265
2016-08-13T08:28:00.925Z,2255
2016-08-13T08:29:00.208Z,2320
2016-08-13T08:30:00.198Z,2325
2016-08-13T08:31:00.175Z,2290
2016-08-13T08:32:00.175Z,2340
2016-08-13T08:33:00.149Z,2370
2016-08-13T08:34:00.136Z,2390
2016-08-13T08:35:00.821Z,2305
2016-08-13T08:35:59.413Z,2255
2016-08-13T08:37:00.102Z,2415
2016-08-13T08:37:58.700Z,2430
2016-08-13T08:39:00.062Z,2420
2016-08-13T08:40:00.079Z,2385
2016-08-13T08:41:00.733Z,2365
2016-08-13T08:42:00.026Z,2380
2016-08-13T08:43:00.018Z,2445
2016-08-13T08:44:00.705Z,2460
2016-08-13T08:44:59.983Z,2450
2016-08-13T08:45:59.963Z,2540
2016-08-13T08:46:59.957Z,2430
2016-08-13T08:47:59.248Z,2380
2016-08-13T08:48:59.937Z,2490
2016-08-13T08:50:00.615Z,2495
2016-08-13T08:51:00.654Z,2480
2016-08-13T08:51:59.891Z,2510
2016-08-13T08:52:59.880Z,2535
2016-08-13T08:54:00.566Z,2495
2016-08-13T08:54:59.847Z,2530
2016-08-13T08:55:59.148Z,2570
2016-08-13T08:57:00.525Z,2585
2016-08-13T08:57:59.806Z,2615
2016-08-13T08:59:00.505Z,2620
2016-08-13T08:59:59.782Z,2690
2016-08-13T09:00:59.079Z,2620
2016-08-13T09:01:59.766Z,2565
2016-08-13T09:03:00.447Z,2645
2016-08-13T09:03:59.756Z,2665
2016-08-13T09:04:59.733Z,2605
2016-08-13T09:05:59.011Z,2560
2016-08-13T09:07:00.392Z,2610
2016-08-13T09:07:58.987Z,2630
2016-08-13T09:09:02.031Z,2500
2016-08-13T09:10:00.617Z,2565
2016-08-13T09:10:59.648Z,2710
2016-08-13T09:12:00.336Z,2645
2016-08-13T09:12:58.950Z,2640
2016-08-13T09:13:59.609Z,2695
2016-08-13T09:14:59.597Z,2645
2016-08-13T09:15:59.585Z,2650
2016-08-13T09:17:00.281Z,2730
2016-08-13T09:18:00.822Z,2705
2016-08-13T09:18:58.862Z,2745
2016-08-13T09:19:59.526Z,2875
2016-08-13T09:21:00.222Z,2880
2016-08-13T09:21:59.557Z,2950
2016-08-13T09:23:00.192Z,3045
2016-08-13T09:23:59.500Z,3090
2016-08-13T09:24:59.469Z,3105
2016-08-13T09:26:00.167Z,3085
2016-08-13T09:26:59.442Z,3200
2016-08-13T09:28:00.127Z,3225
2016-08-13T09:28:59.421Z,3215
2016-08-13T09:29:59.411Z,3190
2016-08-13T09:31:00.094Z,3220
2016-08-13T09:32:00.083Z,3230
2016-08-13T09:33:00.075Z,3165
2016-08-13T09:33:59.366Z,3200
2016-08-13T09:34:58.646Z,3260
2016-08-13T09:35:59.337Z,3310
2016-08-13T09:37:00.030Z,3410
2016-08-13T09:38:00.009Z,3235
2016-08-13T09:38:59.307Z,3270
2016-08-13T09:39:59.299Z,3280
2016-08-13T09:40:59.976Z,3340
2016-08-13T09:41:57.879Z,3300
2016-08-13T09:42:58.561Z,3415
2016-08-13T09:43:59.239Z,3390
2016-08-13T09:44:58.530Z,3365
2016-08-13T09:45:59.215Z,3225
2016-08-13T09:46:59.195Z,3225
2016-08-13T09:47:59.916Z,3340
2016-08-13T09:48:59.185Z,3345
2016-08-13T09:49:59.884Z,3355
2016-08-13T09:50:59.162Z,3360
2016-08-13T09:51:59.852Z,3135
2016-08-13T09:52:59.832Z,3070
2016-08-13T09:53:59.820Z,3110
2016-08-13T09:54:59.133Z,3305
2016-08-13T09:55:59.801Z,3225
2016-08-13T09:56:59.782Z,3100
2016-08-13T09:57:59.075Z,3030
2016-08-13T09:58:59.059Z,2965
2016-08-13T09:59:58.358Z,2975
2016-08-13T10:00:59.038Z,2935
2016-08-13T10:01:59.721Z,2985
2016-08-13T10:02:59.024Z,3060
2016-08-13T10:03:59.019Z,3115
2016-08-13T10:04:58.999Z,3135
2016-08-13T10:05:59.002Z,3185
2016-08-13T10:06:59.686Z,3265
2016-08-13T10:07:58.966Z,3425
2016-08-13T10:08:58.951Z,3480
2016-08-13T10:09:58.946Z,3395
2016-08-13T10:10:58.225Z,2470
2016-08-13T10:11:59.635Z,1645
2016-08-13T10:12:58.212Z,1635
2016-08-13T10:13:59.590Z,1615
2016-08-13T10:14:58.885Z,1610
2016-08-13T10:15:59.569Z,1610
2016-08-13T10:16:58.862Z,1610
2016-08-13T10:17:57.464Z,1585
2016-08-13T10:18:59.550Z,1410
2016-08-13T10:19:58.130Z,1265
2016-08-13T10:20:59.518Z,1250
2016-08-13T10:21:59.506Z,1300
2016-08-13T10:22:59.496Z,1330
2016-08-13T10:23:59.484Z,1340
2016-08-13T10:24:58.783Z,1375
2016-08-13T10:25:59.461Z,1355
2016-08-13T10:26:58.753Z,1320
2016-08-13T10:27:58.043Z,1265
2016-08-13T10:28:58.735Z,1055
2016-08-13T10:29:58.726Z,875
2016-08-13T10:30:58.007Z,1060
2016-08-13T10:31:58.704Z,2325
2016-08-13T10:32:58.685Z,3160
2016-08-13T10:33:58.677Z,3255
2016-08-13T10:34:57.967Z,3280
2016-08-13T10:35:59.354Z,3130
2016-08-13T10:36:59.336Z,3020
2016-08-13T10:37:59.323Z,2885
2016-08-13T10:38:59.305Z,2800
2016-08-13T10:39:58.615Z,2915
2016-08-13T10:40:59.289Z,3145
2016-08-13T10:41:59.285Z,3460
2016-08-13T10:42:59.301Z,3195
2016-08-13T10:43:59.254Z,3065
2016-08-13T10:44:59.237Z,3020
2016-08-13T10:45:58.520Z,2875
2016-08-13T10:46:57.835Z,2880
2016-08-13T10:47:59.214Z,3130
2016-08-13T10:48:59.186Z,3405
2016-08-13T10:49:57.782Z,3365
2016-08-13T10:50:59.169Z,3285
2016-08-13T10:51:58.450Z,3295
2016-08-13T10:52:59.142Z,3420
2016-08-13T10:53:57.724Z,3370
2016-08-13T10:54:59.120Z,3460
2016-08-13T10:55:57.718Z,3725
2016-08-13T10:56:58.386Z,4050
2016-08-13T10:57:59.063Z,4140
2016-08-13T10:58:59.055Z,3940
2016-08-13T10:59:58.354Z,3785
2016-08-13T11:00:58.329Z,3075
2016-08-13T11:01:59.007Z,1745
2016-08-13T11:02:57.616Z,1120
2016-08-13T11:03:58.280Z,640
2016-08-13T11:04:58.317Z,565
2016-08-13T11:05:58.953Z,540
2016-08-13T11:06:58.947Z,515
2016-08-13T11:07:57.527Z,485
2016-08-13T11:08:57.751Z,465
2016-08-13T11:09:58.196Z,455
2016-08-13T11:10:58.881Z,445
2016-08-13T11:11:58.868Z,435
2016-08-13T11:12:58.842Z,430
2016-08-13T11:13:59.090Z,430
2016-08-13T11:14:57.415Z,585
2016-08-13T11:15:58.101Z,1935
2016-08-13T11:16:58.085Z,2780
2016-08-13T11:17:58.758Z,2665
2016-08-13T11:18:58.739Z,2660
2016-08-13T11:19:57.332Z,2650
2016-08-13T11:20:58.703Z,2640
2016-08-13T11:21:58.335Z,2660
2016-08-13T11:22:57.969Z,2140
2016-08-13T11:23:57.954Z,765
2016-08-13T11:24:57.940Z,290
2016-08-13T11:25:57.926Z,275
2016-08-13T11:26:58.597Z,270
2016-08-13T11:27:57.889Z,260
2016-08-13T11:28:58.562Z,255
2016-08-13T11:29:57.143Z,250
2016-08-13T11:30:57.822Z,240
2016-08-13T11:31:58.505Z,235
2016-08-13T11:32:57.781Z,220
2016-08-13T11:33:57.762Z,210
2016-08-13T11:34:57.046Z,195
2016-08-13T11:35:57.722Z,190
2016-08-13T11:36:57.695Z,180
2016-08-13T11:37:57.676Z,175
2016-08-13T11:38:56.285Z,170
2016-08-13T11:39:58.327Z,170
2016-08-13T11:40:58.308Z,165
2016-08-13T11:41:58.289Z,165
2016-08-13T11:42:57.560Z,165
2016-08-13T11:43:57.546Z,165
2016-08-13T11:44:58.233Z,165
2016-08-13T11:45:56.110Z,165
2016-08-13T11:46:57.473Z,165
2016-08-13T11:47:58.144Z,165
2016-08-13T11:48:58.128Z,160
2016-08-13T11:49:57.399Z,160
2016-08-13T11:50:58.091Z,160
2016-08-13T11:51:57.354Z,160
2016-08-13T11:52:58.029Z,160
2016-08-13T11:53:57.305Z,160
2016-08-13T11:54:57.302Z,160
2016-08-13T11:55:57.268Z,160
2016-08-13T11:56:57.239Z,160
2016-08-13T11:57:57.230Z,160
2016-08-13T11:58:57.906Z,160
2016-08-13T11:59:57.964Z,160
2016-08-13T12:00:57.140Z,160
2016-08-13T12:01:57.112Z,165
2016-08-13T12:02:57.106Z,160
2016-08-13T12:03:57.063Z,155
2016-08-13T12:04:57.760Z,155
2016-08-13T12:05:57.036Z,155
2016-08-13T12:06:55.367Z,155
2016-08-13T12:07:55.586Z,155
2016-08-13T12:08:56.935Z,155
2016-08-13T12:09:56.213Z,155
2016-08-13T12:10:56.196Z,155
2016-08-13T12:11:56.164Z,155
2016-08-13T12:12:56.875Z,155
2016-08-13T12:13:56.819Z,155
2016-08-13T12:14:56.785Z,150
2016-08-13T12:15:56.772Z,150
2016-08-13T12:16:57.441Z,150
2016-08-13T12:17:57.411Z,150
2016-08-13T12:18:57.382Z,150
2016-08-13T12:19:57.360Z,150
2016-08-13T12:20:57.330Z,150
2016-08-13T12:21:57.299Z,150
2016-08-13T12:22:56.600Z,150
2016-08-13T12:23:57.258Z,150
2016-08-13T12:24:55.834Z,150
2016-08-13T12:25:55.807Z,150
2016-08-13T12:27:57.163Z,150
2016-08-13T12:28:56.439Z,150
2016-08-13T12:29:56.397Z,150
2016-08-13T12:30:56.378Z,150
2016-08-13T12:31:57.040Z,150
2016-08-13T12:32:55.630Z,150
2016-08-13T12:33:54.899Z,150
2016-08-13T12:34:56.969Z,150
2016-08-13T12:35:55.552Z,145
2016-08-13T12:36:56.238Z,145
2016-08-13T12:37:56.202Z,145
2016-08-13T12:38:56.880Z,145
2016-08-13T12:39:55.440Z,150
2016-08-13T12:40:56.813Z,145
2016-08-13T12:41:56.793Z,145
2016-08-13T12:42:56.771Z,145
2016-08-13T12:43:56.735Z,145
2016-08-13T12:44:56.011Z,145
2016-08-13T12:45:56.699Z,145
2016-08-13T12:46:56.656Z,145
2016-08-13T12:47:55.237Z,145
2016-08-13T12:48:56.607Z,145
2016-08-13T12:49:55.183Z,145
2016-08-13T12:50:55.862Z,145
2016-08-13T12:51:56.522Z,145
2016-08-13T12:52:55.800Z,140
2016-08-13T12:53:56.471Z,140
2016-08-13T12:54:55.762Z,140
2016-08-13T12:55:56.420Z,140
2016-08-13T12:56:55.698Z,140
2016-08-13T12:57:56.376Z,140
2016-08-13T12:58:56.342Z,140
2016-08-13T12:59:56.337Z,140
2016-08-13T13:00:55.594Z,140
2016-08-13T13:01:56.266Z,140
2016-08-13T13:02:55.556Z,140
2016-08-13T13:03:56.209Z,140
2016-08-13T13:04:56.188Z,140
2016-08-13T13:05:55.465Z,140
2016-08-13T13:06:56.138Z,140
2016-08-13T13:07:54.716Z,140
2016-08-13T13:08:55.384Z,140
2016-08-13T13:09:56.067Z,140
2016-08-13T13:10:55.334Z,145
2016-08-13T13:11:56.005Z,135
2016-08-13T13:12:55.979Z,135
2016-08-13T13:13:54.554Z,135
2016-08-13T13:14:55.931Z,135
2016-08-13T13:15:54.504Z,140
2016-08-13T13:16:55.879Z,145
2016-08-13T13:17:55.857Z,140
2016-08-13T13:18:55.124Z,145
2016-08-13T13:19:55.806Z,145
2016-08-13T13:20:54.385Z,145
2016-08-13T13:21:55.044Z,145
2016-08-13T13:22:55.036Z,140
2016-08-13T13:23:55.002Z,140
2016-08-13T13:24:54.988Z,140
2016-08-13T13:25:54.939Z,145
2016-08-13T13:26:55.608Z,140
2016-08-13T13:27:55.580Z,140
2016-08-13T13:28:55.562Z,140
2016-08-13T13:29:54.838Z,140
2016-08-13T13:30:54.820Z,140
2016-08-13T13:31:54.117Z,140
2016-08-13T13:32:54.757Z,135
2016-08-13T13:33:55.428Z,135
2016-08-13T13:34:55.403Z,140
2016-08-13T13:35:53.982Z,140
2016-08-13T13:36:54.667Z,135
2016-08-13T13:37:55.330Z,135
2016-08-13T13:38:55.314Z,135
2016-08-13T13:39:54.581Z,135
2016-08-13T13:40:55.244Z,135
2016-08-13T13:41:54.526Z,135
2016-08-13T13:42:54.513Z,135
2016-08-13T13:43:54.479Z,135
2016-08-13T13:44:55.144Z,135
2016-08-13T13:45:53.023Z,135
2016-08-13T13:46:53.707Z,130
2016-08-13T13:47:55.074Z,130
2016-08-13T13:48:53.659Z,130
2016-08-13T13:49:54.313Z,130
2016-08-13T13:50:54.290Z,130
2016-08-13T13:51:54.954Z,130
2016-08-13T13:52:54.245Z,130
2016-08-13T13:53:54.229Z,130
2016-08-13T13:54:54.189Z,130
2016-08-13T13:55:54.158Z,130